Time;durP1;ratioP1;P1;durP2;ratioP2;P2;SDS_P1;SDS_P2;PMS_P1;PMS_P2;Temp;Humidity;BMP_temperature;BMP_pressure;BME280_temperature;BME280_humidity;BME280_pressure;Samples;Min_cycle;Max_cycle;Signal;HPM_P1;HPM_P2
2024/03/09 09:51:28;;;;;;;5.73;3.00;;;12.90;99.90;;;;;;4754870;23;20245;-76
2024/03/09 09:53:55;;;;;;;4.77;2.43;;;12.90;99.90;;;;;;4918736;29;20205;-72
2024/03/09 09:56:22;;;;;;;3.77;2.10;;;13.10;99.90;;;;;;4918701;29;20293;-72
2024/03/09 09:58:49;;;;;;;4.80;2.27;;;13.00;99.90;;;;;;4912927;29;20234;-75
2024/03/09 10:01:20;;;;;;;5.27;2.37;;;13.00;99.90;;;;;;4911129;29;20288;-72
2024/03/09 10:03:48;;;;;;;5.13;2.20;;;12.80;99.90;;;;;;4917349;29;20202;-74
2024/03/09 10:06:20;;;;;;;4.80;2.27;;;12.70;99.90;;;;;;4916262;29;20229;-80
2024/03/09 10:08:52;;;;;;;6.30;2.83;;;12.60;99.90;;;;;;4919847;29;20257;-75
2024/03/09 10:11:20;;;;;;;5.70;2.43;;;12.70;99.90;;;;;;4916339;29;20270;-74
2024/03/09 10:13:48;;;;;;;5.10;1.87;;;12.60;99.90;;;;;;4916528;29;20824;-75
2024/03/09 10:16:16;;;;;;;6.03;2.60;;;12.70;99.90;;;;;;4916946;29;20208;-75
2024/03/09 10:18:44;;;;;;;4.60;2.20;;;13.00;99.90;;;;;;4916470;29;20309;-74
2024/03/09 10:21:13;;;;;;;4.77;2.00;;;12.80;99.90;;;;;;4917150;29;20579;-79
2024/03/09 10:23:46;;;;;;;4.03;1.93;;;12.70;99.90;;;;;;4926089;29;20207;-74
2024/03/09 10:26:14;;;;;;;3.80;1.90;;;12.60;99.90;;;;;;4939117;29;20544;-74
2024/03/09 10:28:41;;;;;;;3.40;1.80;;;12.60;99.90;;;;;;4916852;29;20249;-74
2024/03/09 10:31:08;;;;;;;5.37;2.33;;;12.80;99.90;;;;;;4917289;29;20256;-74
2024/03/09 10:33:36;;;;;;;4.87;2.43;;;12.90;99.90;;;;;;4916341;29;20628;-74
2024/03/09 10:36:03;;;;;;;4.50;2.60;;;13.10;99.90;;;;;;4916940;29;20209;-76
2024/03/09 10:38:31;;;;;;;4.50;2.27;;;13.10;99.90;;;;;;4915987;29;20265;-78
2024/03/09 10:40:58;;;;;;;4.97;2.03;;;13.20;99.90;;;;;;4916747;29;20233;-74
2024/03/09 10:43:28;;;;;;;5.30;2.53;;;13.30;99.90;;;;;;4916958;29;20213;-77
2024/03/09 10:45:59;;;;;;;4.60;1.90;;;13.10;99.90;;;;;;4937974;29;20236;-77
2024/03/09 10:48:30;;;;;;;3.50;1.83;;;13.10;99.90;;;;;;4921221;29;20233;-78
2024/03/09 10:51:19;;;;;;;4.87;1.90;;;13.20;99.90;;;;;;4921213;29;20379;-79
2024/03/09 10:54:01;;;;;;;3.50;1.80;;;13.30;99.90;;;;;;4919602;29;20209;-75
2024/03/09 10:56:31;;;;;;;3.73;1.73;;;13.40;99.90;;;;;;4917056;29;20512;-74
2024/03/09 10:59:00;;;;;;;4.37;2.17;;;13.40;99.90;;;;;;4915716;29;20233;-74
2024/03/09 11:01:29;;;;;;;3.43;1.83;;;13.40;99.90;;;;;;4915914;29;20237;-74
2024/03/09 11:03:59;;;;;;;4.70;2.20;;;13.50;99.90;;;;;;4916079;29;20300;-74
2024/03/09 11:06:28;;;;;;;5.63;2.20;;;13.60;99.90;;;;;;4916228;29;20198;-73
2024/03/09 11:08:56;;;;;;;4.50;1.93;;;13.60;99.90;;;;;;4917203;29;20643;-78
2024/03/09 11:11:26;;;;;;;3.97;2.10;;;13.60;99.90;;;;;;4916241;29;20241;-73
2024/03/09 11:13:53;;;;;;;3.10;1.80;;;13.50;99.90;;;;;;4915663;29;20309;-75
2024/03/09 11:16:24;;;;;;;4.63;1.93;;;13.70;99.90;;;;;;4916086;29;20304;-75
2024/03/09 11:18:56;;;;;;;3.73;1.97;;;13.80;99.90;;;;;;4917056;29;20288;-78
2024/03/09 11:21:29;;;;;;;4.50;2.00;;;13.90;99.90;;;;;;4916303;29;20233;-74
2024/03/09 11:23:59;;;;;;;5.27;2.40;;;14.00;99.90;;;;;;4916388;29;20320;-74
2024/03/09 11:26:27;;;;;;;5.17;2.10;;;13.90;99.90;;;;;;4918436;29;20261;-76
2024/03/09 11:28:56;;;;;;;4.60;2.10;;;14.20;99.90;;;;;;4916630;29;20259;-76
2024/03/09 11:31:29;;;;;;;3.10;2.10;;;14.20;99.90;;;;;;4916734;29;20245;-73
2024/03/09 11:33:58;;;;;;;5.10;2.60;;;14.10;99.90;;;;;;4916920;29;20209;-73
2024/03/09 11:36:50;;;;;;;4.33;2.27;;;13.80;99.90;;;;;;4916833;29;20305;-73
2024/03/09 11:39:20;;;;;;;3.50;1.97;;;13.80;99.90;;;;;;4914060;29;20313;-74
2024/03/09 11:41:48;;;;;;;4.20;2.10;;;13.70;99.90;;;;;;4916497;29;20240;-73
2024/03/09 11:44:20;;;;;;;3.40;1.90;;;13.50;99.90;;;;;;4919250;29;20300;-74
2024/03/09 11:46:48;;;;;;;3.70;2.10;;;13.50;99.90;;;;;;4931232;29;20281;-73
2024/03/09 11:49:16;;;;;;;3.60;1.70;;;13.60;99.90;;;;;;4916356;29;20810;-74
2024/03/09 11:51:44;;;;;;;3.17;1.80;;;13.50;99.90;;;;;;4916666;29;20235;-73
2024/03/09 11:54:12;;;;;;;3.77;1.90;;;13.70;99.90;;;;;;4916450;29;20245;-73
2024/03/09 11:56:40;;;;;;;3.17;1.63;;;13.90;99.90;;;;;;4916381;29;20213;-73
2024/03/09 11:59:10;;;;;;;4.00;2.00;;;13.90;99.90;;;;;;4913441;29;20229;-75
2024/03/09 12:01:39;;;;;;;4.07;2.13;;;14.00;99.90;;;;;;4914645;29;20245;-83
2024/03/09 12:04:08;;;;;;;4.43;2.50;;;14.10;99.90;;;;;;4915575;29;20209;-75
2024/03/09 12:06:40;;;;;;;7.87;2.80;;;14.00;99.90;;;;;;4914961;29;20305;-75
2024/03/09 12:09:08;;;;;;;4.17;2.10;;;14.00;99.90;;;;;;4914218;29;20230;-74
2024/03/09 12:11:35;;;;;;;3.47;1.63;;;14.00;99.90;;;;;;4914210;29;20720;-75
2024/03/09 12:14:03;;;;;;;4.07;2.10;;;14.10;99.90;;;;;;4914059;29;20491;-74
2024/03/09 12:16:32;;;;;;;4.40;2.43;;;14.20;99.90;;;;;;4914737;29;20240;-75
2024/03/09 12:19:06;;;;;;;5.70;2.10;;;14.20;99.90;;;;;;4915051;29;20316;-76
2024/03/09 12:21:36;;;;;;;2.70;1.63;;;14.40;99.90;;;;;;4914986;29;20249;-75
2024/03/09 12:24:03;;;;;;;3.53;1.77;;;14.40;99.90;;;;;;4914985;29;20210;-75
2024/03/09 12:26:31;;;;;;;3.50;1.80;;;14.40;99.90;;;;;;4914501;29;20256;-74
2024/03/09 12:29:03;;;;;;;4.30;1.90;;;14.40;99.90;;;;;;4914521;29;20823;-78
2024/03/09 12:31:30;;;;;;;4.27;1.80;;;14.40;99.90;;;;;;4914948;29;20566;-74
2024/03/09 12:33:58;;;;;;;3.93;1.50;;;14.50;99.90;;;;;;4914508;29;20304;-74
2024/03/09 12:36:25;;;;;;;2.77;1.60;;;14.70;99.90;;;;;;4919554;29;20213;-73
2024/03/09 12:39:09;;;;;;;3.47;1.70;;;14.90;99.90;;;;;;4919717;29;20296;-73
2024/03/09 12:41:37;;;;;;;3.00;1.67;;;15.00;99.90;;;;;;4918555;29;20252;-75
2024/03/09 12:44:05;;;;;;;3.73;1.90;;;14.90;99.90;;;;;;4902372;29;20217;-74
2024/03/09 12:46:33;;;;;;;2.47;1.07;;;14.90;99.90;;;;;;4937405;29;20261;-74
2024/03/09 12:49:08;;;;;;;3.60;1.47;;;14.80;99.90;;;;;;4918508;29;20908;-78
2024/03/09 12:51:35;;;;;;;2.67;1.20;;;14.70;99.90;;;;;;4918151;29;20252;-76
2024/03/09 12:54:06;;;;;;;2.17;1.00;;;14.60;99.90;;;;;;4918394;29;20284;-75
2024/03/09 12:56:34;;;;;;;2.80;1.43;;;14.50;99.90;;;;;;4918091;29;20205;-75
2024/03/09 12:59:01;;;;;;;2.70;1.50;;;14.60;99.90;;;;;;4918022;29;20232;-76
2024/03/09 13:01:30;;;;;;;2.00;1.40;;;14.60;99.90;;;;;;4918260;29;20348;-75
2024/03/09 13:03:58;;;;;;;4.33;1.10;;;14.60;99.90;;;;;;4918268;29;20658;-76
2024/03/09 13:06:25;;;;;;;4.23;1.60;;;14.60;99.90;;;;;;4918151;29;20292;-75
2024/03/09 13:08:54;;;;;;;3.13;1.57;;;14.70;99.90;;;;;;4917759;29;20261;-73
2024/03/09 13:11:22;;;;;;;3.40;1.37;;;14.80;99.90;;;;;;4918242;29;20543;-76
2024/03/09 13:13:49;;;;;;;2.83;1.53;;;15.00;99.90;;;;;;4918018;29;20690;-76
2024/03/09 13:16:17;;;;;;;2.73;1.10;;;14.90;99.90;;;;;;4918006;29;20237;-74
2024/03/09 13:18:46;;;;;;;2.47;1.27;;;14.90;99.90;;;;;;4917557;29;20291;-75
2024/03/09 13:21:14;;;;;;;3.60;1.67;;;15.00;99.90;;;;;;4917946;29;20627;-75
2024/03/09 13:23:40;;;;;;;2.93;1.30;;;15.20;99.90;;;;;;4918408;29;20241;-75
2024/03/09 13:26:12;;;;;;;3.20;1.33;;;15.40;99.90;;;;;;4917398;29;20301;-76
2024/03/09 13:28:41;;;;;;;4.37;1.30;;;15.40;99.90;;;;;;4917187;29;20313;-74
2024/03/09 13:31:08;;;;;;;3.67;1.50;;;15.40;99.90;;;;;;4917742;29;20309;-77
